Time;durP1;ratioP1;P1;durP2;ratioP2;P2;SDS_P1;SDS_P2;PMS_P1;PMS_P2;Temp;Humidity;BMP_temperature;BMP_pressure;BME280_temperature;BME280_humidity;BME280_pressure;Samples;Min_cycle;Max_cycle;Signal;HPM_P1;HPM_P2
2022/06/28 00:00:44;;;;;;;5.53;4.95;;;;;;;;;;5035028;28;20018;-69
2022/06/28 00:03:10;;;;;;;6.28;4.60;;;;;;;;;;5035228;28;20037;-69
2022/06/28 00:05:36;;;;;;;5.65;4.75;;;;;;;;;;5034582;28;20077;-79
2022/06/28 00:08:02;;;;;;;8.02;5.07;;;;;;;;;;5034413;28;20037;-79
2022/06/28 00:10:29;;;;;;;7.22;5.03;;;;;;;;;;5034978;28;20022;-79
2022/06/28 00:12:55;;;;;;;7.85;5.15;;;;;;;;;;5034553;28;20079;-70
2022/06/28 00:18:05;;;;;;;4.93;4.40;;;;;;;;;;5034566;28;20064;-72
2022/06/28 00:20:32;;;;;;;6.55;5.07;;;;;;;;;;5034523;28;20579;-76
2022/06/28 00:22:58;;;;;;;6.25;5.38;;;;;;;;;;5034034;28;20033;-78
2022/06/28 00:25:24;;;;;;;7.47;4.90;;;;;;;;;;5034315;28;20045;-79
2022/06/28 00:27:50;;;;;;;8.25;5.18;;;;;;;;;;5034070;28;20041;-79
2022/06/28 00:30:16;;;;;;;7.07;5.05;;;;;;;;;;5034249;28;20083;-79
2022/06/28 00:32:42;;;;;;;8.10;4.80;;;;;;;;;;5034199;28;20506;-74
2022/06/28 00:35:08;;;;;;;5.93;5.00;;;;;;;;;;5034203;28;20036;-78
2022/06/28 00:37:35;;;;;;;8.35;5.47;;;;;;;;;;5034116;28;20017;-69
2022/06/28 00:40:00;;;;;;;7.07;5.53;;;614.80;2432.00;;;;;;5034093;28;20115;-77
2022/06/28 00:42:26;;;;;;;8.48;5.25;;;614.80;2432.00;;;;;;5033939;28;20025;-75
2022/06/28 00:44:52;;;;;;;8.43;5.22;;;614.80;2432.00;;;;;;5033977;28;20484;-74
2022/06/28 00:47:18;;;;;;;7.95;4.75;;;614.70;2432.00;;;;;;5033939;28;20116;-78
2022/06/28 00:49:44;;;;;;;9.68;5.25;;;614.70;2432.00;;;;;;5016113;28;20029;-75
2022/06/28 00:52:12;;;;;;;6.93;5.50;;;614.60;2432.00;;;;;;5033880;28;20033;-78
2022/06/28 00:54:40;;;;;;;5.93;5.22;;;614.70;2432.00;;;;;;5033868;28;20026;-77
2022/06/28 00:57:07;;;;;;;7.75;5.55;;;614.80;2432.00;;;;;;5033699;28;20026;-77
2022/06/28 00:59:33;;;;;;;6.82;5.13;;;614.80;2432.00;;;;;;5033956;28;20022;-76
2022/06/28 01:02:00;;;;;;;5.53;4.72;;;614.80;2432.00;;;;;;5033818;28;20037;-73
2022/06/28 01:04:27;;;;;;;8.27;5.07;;;614.70;2432.00;;;;;;5033626;28;20095;-68
2022/06/28 01:06:53;;;;;;;8.90;5.43;;;;;;;;;;5033577;28;20527;-79
2022/06/28 01:09:19;;;;;;;5.38;4.70;;;;;;;;;;5033578;28;20033;-78
2022/06/28 01:11:45;;;;;;;6.78;5.45;;;614.50;2432.00;;;;;;5033422;28;20033;-78
2022/06/28 01:14:11;;;;;;;9.35;5.13;;;614.40;2432.00;;;;;;5033476;28;20026;-78
2022/06/28 01:16:37;;;;;;;6.88;5.05;;;614.40;2432.00;;;;;;5033546;28;20025;-77
2022/06/28 01:19:05;;;;;;;6.65;5.47;;;614.50;2432.00;;;;;;5033440;28;20032;-77
2022/06/28 01:21:34;;;;;;;5.20;4.70;;;614.50;2432.00;;;;;;5015618;28;20388;-77
2022/06/28 01:23:59;;;;;;;5.90;5.15;;;614.50;2432.00;;;;;;5033422;28;20120;-76
2022/06/28 01:26:25;;;;;;;6.32;4.90;;;614.50;2432.00;;;;;;5033068;28;20108;-77
2022/06/28 01:28:52;;;;;;;6.00;4.85;;;614.50;2432.00;;;;;;5033447;28;20407;-77
2022/06/28 01:31:19;;;;;;;7.10;5.90;;;614.50;2432.00;;;;;;5033200;28;20457;-77
2022/06/28 01:33:45;;;;;;;9.55;5.22;;;614.40;2432.00;;;;;;5032894;28;20060;-78
2022/06/28 01:36:12;;;;;;;6.85;4.97;;;614.50;2432.00;;;;;;5033088;28;20013;-77
2022/06/28 01:38:39;;;;;;;6.70;4.68;;;614.50;2432.00;;;;;;5033221;28;20026;-78
2022/06/28 01:41:06;;;;;;;6.10;5.00;;;614.50;2432.00;;;;;;5033190;28;20025;-77
2022/06/28 01:43:32;;;;;;;5.43;4.65;;;614.40;2432.00;;;;;;5033148;28;20100;-78
2022/06/28 01:45:59;;;;;;;8.45;5.38;;;614.40;2432.00;;;;;;5033055;28;20463;-78
2022/06/28 01:48:25;;;;;;;9.00;4.72;;;;;;;;;;5033057;28;20029;-79
2022/06/28 01:50:52;;;;;;;5.50;5.00;;;589.70;2432.00;;;;;;5033041;28;20022;-79
2022/06/28 01:53:19;;;;;;;5.43;4.90;;;;;;;;;;5033007;28;20029;-79
2022/06/28 01:55:45;;;;;;;6.50;4.88;;;;;;;;;;5032986;28;20026;-79
2022/06/28 01:58:12;;;;;;;7.15;5.50;;;;;;;;;;5033048;28;20045;-79
2022/06/28 02:00:38;;;;;;;5.18;4.30;;;;;;;;;;5032956;28;20029;-80
2022/06/28 02:03:04;;;;;;;5.50;4.95;;;;;;;;;;5033594;28;20526;-79
2022/06/28 02:05:31;;;;;;;7.93;4.68;;;;;;;;;;5032853;28;20057;-80
2022/06/28 02:07:57;;;;;;;7.00;5.07;;;;;;;;;;5032945;28;20029;-80
2022/06/28 02:10:23;;;;;;;5.97;4.65;;;;;;;;;;5032969;28;20418;-80
2022/06/28 02:12:50;;;;;;;6.43;4.65;;;;;;;;;;5032979;28;20487;-77
2022/06/28 02:15:16;;;;;;;6.97;4.53;;;;;;;;;;5032970;28;20026;-79
2022/06/28 02:17:42;;;;;;;7.82;4.82;;;;;;;;;;5032966;28;20026;-80
2022/06/28 02:20:09;;;;;;;6.45;5.00;;;;;;;;;;5032772;28;20017;-78
2022/06/28 02:22:35;;;;;;;9.32;5.18;;;;;;;;;;5032730;28;20377;-80
2022/06/28 02:25:01;;;;;;;7.05;4.80;;;;;;;;;;5032691;28;20102;-80
2022/06/28 02:27:27;;;;;;;6.53;5.00;;;;;;;;;;5014718;28;20462;-80
2022/06/28 02:29:53;;;;;;;6.53;5.10;;;;;;;;;;5032757;28;20451;-80
2022/06/28 02:32:19;;;;;;;8.05;5.22;;;;;;;;;;5033084;28;20033;-77
2022/06/28 02:40:21;;;;;;;7.57;5.20;;;;;;;;;;5032947;28;20044;-77
2022/06/28 02:42:54;;;;;;;5.82;4.93;;;;;;;;;;5032507;28;20052;-78
2022/06/28 02:45:21;;;;;;;7.60;4.43;;;;;;;;;;5033207;28;20080;-78
2022/06/28 02:47:47;;;;;;;6.32;5.20;;;;;;;;;;5036109;28;20033;-73
2022/06/28 02:50:13;;;;;;;5.78;5.15;;;;;;;;;;5036200;28;20025;-79
2022/06/28 02:52:39;;;;;;;9.00;5.03;;;;;;;;;;5036309;28;20383;-79
2022/06/28 02:55:06;;;;;;;7.68;5.22;;;;;;;;;;5036211;28;20021;-69
2022/06/28 02:57:33;;;;;;;8.60;5.32;;;;;;;;;;5035878;28;20025;-75
2022/06/28 02:59:59;;;;;;;6.53;5.00;;;;;;;;;;5018287;28;20083;-69
2022/06/28 03:02:26;;;;;;;7.85;5.68;;;;;;;;;;5036117;28;20025;-78
2022/06/28 03:04:52;;;;;;;5.70;5.10;;;;;;;;;;5036014;28;20045;-72
2022/06/28 03:07:18;;;;;;;7.43;5.25;;;;;;;;;;5035878;28;20029;-79
2022/06/28 03:09:44;;;;;;;5.75;5.22;;;;;;;;;;5035727;28;20027;-79
2022/06/28 03:12:10;;;;;;;5.95;5.07;;;;;;;;;;5035667;28;20492;-79
2022/06/28 03:14:36;;;;;;;5.38;4.88;;;;;;;;;;5035711;28;20029;-79
2022/06/28 03:17:03;;;;;;;6.32;4.97;;;;;;;;;;5035605;28;20040;-72
2022/06/28 03:19:29;;;;;;;10.02;4.88;;;;;;;;;;5035821;28;20064;-69
2022/06/28 03:21:55;;;;;;;8.48;5.13;;;;;;;;;;5035634;28;20021;-79
2022/06/28 03:24:21;;;;;;;6.30;5.13;;;;;;;;;;5017838;28;20466;-69
2022/06/28 03:26:47;;;;;;;7.13;5.35;;;;;;;;;;5035347;28;20029;-69
2022/06/28 03:29:13;;;;;;;5.40;4.90;;;;;;;;;;5035370;28;20029;-79
2022/06/28 03:31:39;;;;;;;8.27;5.35;;;;;;;;;;5035624;28;20068;-79
2022/06/28 03:34:05;;;;;;;6.07;5.32;;;;;;;;;;5035346;28;20029;-79
2022/06/28 03:36:31;;;;;;;10.73;5.40;;;;;;;;;;5035445;28;20104;-75
2022/06/28 03:38:57;;;;;;;10.48;5.70;;;;;;;;;;5035405;28;20100;-79
2022/06/28 03:41:23;;;;;;;6.38;5.13;;;;;;;;;;5035306;28;20056;-79
2022/06/28 03:43:50;;;;;;;9.20;5.72;;;;;;;;;;5035079;28;20091;-78
2022/06/28 03:46:16;;;;;;;9.60;5.82;;;;;;;;;;5035075;28;20049;-79
2022/06/28 03:48:42;;;;;;;7.13;5.50;;;;;;;;;;5035063;28;20507;-79
2022/06/28 03:51:08;;;;;;;7.80;5.15;;;;;;;;;;5035031;28;20104;-77
2022/06/28 03:53:34;;;;;;;7.28;5.10;;;;;;;;;;5034960;28;20080;-79
2022/06/28 03:56:00;;;;;;;6.53;5.60;;;;;;;;;;5035069;28;20092;-79
2022/06/28 03:58:26;;;;;;;7.38;4.88;;;;;;;;;;5034187;28;20498;-79
2022/06/28 04:00:53;;;;;;;13.65;5.55;;;;;;;;;;5034942;28;20030;-78
2022/06/28 04:03:19;;;;;;;7.32;5.30;;;;;;;;;;5034702;28;20025;-79
2022/06/28 04:05:45;;;;;;;7.55;5.15;;;;;;;;;;5034594;28;20053;-79
2022/06/28 04:08:11;;;;;;;8.43;5.65;;;;;;;;;;5034674;28;20112;-77
2022/06/28 04:10:38;;;;;;;7.15;5.35;;;;;;;;;;5034617;28;20087;-76
2022/06/28 04:13:04;;;;;;;6.30;5.03;;;;;;;;;;5034447;28;20083;-78
2022/06/28 04:15:30;;;;;;;7.35;5.47;;;;;;;;;;5034692;28;20099;-76
2022/06/28 04:17:56;;;;;;;6.90;5.00;;;;;;;;;;5034528;28;20021;-79
2022/06/28 04:20:23;;;;;;;9.55;5.45;;;;;;;;;;5034843;28;20022;-78
2022/06/28 04:22:49;;;;;;;9.30;5.63;;;;;;;;;;5034608;28;20033;-78
2022/06/28 04:25:15;;;;;;;11.02;5.40;;;;;;;;;;5034433;28;20021;-76
2022/06/28 04:27:41;;;;;;;7.25;5.32;;;;;;;;;;5034238;28;20546;-78
2022/06/28 04:30:07;;;;;;;6.63;4.75;;;;;;;;;;5034321;28;20021;-78
2022/06/28 04:32:33;;;;;;;6.03;5.43;;;;;;;;;;5034589;28;20037;-78
2022/06/28 04:35:00;;;;;;;7.55;5.60;;;;;;;;;;5034139;28;20475;-79
2022/06/28 04:37:26;;;;;;;7.80;5.10;;;;;;;;;;5034291;28;20415;-79
2022/06/28 04:39:52;;;;;;;5.63;4.85;;;;;;;;;;5034080;28;20018;-78
2022/06/28 04:42:18;;;;;;;8.07;5.13;;;;;;;;;;5034164;28;20018;-78
2022/06/28 04:44:44;;;;;;;6.63;5.43;;;;;;;;;;5034097;28;20057;-78
2022/06/28 04:47:10;;;;;;;11.57;6.63;;;;;;;;;;5033960;28;20040;-74
2022/06/28 04:49:37;;;;;;;11.38;6.68;;;;;;;;;;5034007;28;20373;-78
2022/06/28 04:52:03;;;;;;;7.63;5.95;;;;;;;;;;5033873;28;20033;-78
2022/06/28 04:54:29;;;;;;;9.20;7.13;;;;;;;;;;5033922;28;20025;-79
2022/06/28 04:56:55;;;;;;;11.70;7.85;;;;;;;;;;5034021;28;20061;-79
2022/06/28 04:59:21;;;;;;;8.27;6.40;;;;;;;;;;5033840;28;20388;-79
2022/06/28 05:01:47;;;;;;;13.63;7.95;;;;;;;;;;5033900;28;20099;-79
2022/06/28 05:04:13;;;;;;;11.85;7.05;;;;;;;;;;5033627;28;20053;-79
2022/06/28 05:06:40;;;;;;;8.75;6.50;;;;;;;;;;5033729;28;20112;-71
2022/06/28 05:09:06;;;;;;;9.82;6.75;;;;;;;;;;5033053;28;20075;-75
2022/06/28 05:11:32;;;;;;;9.35;7.05;;;;;;;;;;5033532;28;20021;-77
2022/06/28 05:13:59;;;;;;;15.98;12.70;;;;;;;;;;5033311;28;20030;-77
2022/06/28 05:16:26;;;;;;;9.48;7.15;;;;;;;;;;5033530;28;20026;-79
2022/06/28 05:18:52;;;;;;;10.00;9.00;;;;;;;;;;5033306;28;20032;-78
2022/06/28 05:21:18;;;;;;;10.52;6.80;;;;;;;;;;5033644;28;20049;-77
2022/06/28 05:23:44;;;;;;;11.07;7.18;;;;;;;;;;5033287;28;20018;-79
2022/06/28 05:26:10;;;;;;;8.48;6.57;;;;;;;;;;5033221;28;20094;-78
2022/06/28 05:28:37;;;;;;;19.40;12.48;;;;;;;;;;5033130;28;20025;-78
2022/06/28 05:31:03;;;;;;;9.18;7.53;;;;;;;;;;5033066;28;20022;-78
2022/06/28 05:33:30;;;;;;;8.43;6.25;;;;;;;;;;5033322;28;20033;-78
2022/06/28 05:35:56;;;;;;;6.88;5.95;;;;;;;;;;5033101;28;20018;-76
2022/06/28 05:38:22;;;;;;;8.23;5.90;;;;;;;;;;5033057;28;20061;-79
2022/06/28 05:40:48;;;;;;;9.40;6.55;;;;;;;;;;5033103;28;20492;-79
2022/06/28 05:43:15;;;;;;;16.58;8.15;;;;;;;;;;5032949;28;20558;-77
2022/06/28 05:45:41;;;;;;;9.07;6.22;;;;;;;;;;5033026;28;20484;-79
2022/06/28 05:48:07;;;;;;;10.23;7.57;;;;;;;;;;5032875;28;20037;-79
2022/06/28 05:50:33;;;;;;;9.00;7.03;;;;;;;;;;5032863;28;20022;-79
2022/06/28 05:52:59;;;;;;;11.50;6.53;;;;;;;;;;5032965;28;20029;-78
2022/06/28 05:55:25;;;;;;;9.50;5.95;;;;;;;;;;5032866;28;20018;-79
2022/06/28 05:57:51;;;;;;;9.20;6.93;;;;;;;;;;5032738;28;20056;-79
2022/06/28 06:00:18;;;;;;;8.00;6.47;;;;;;;;;;5032921;28;20026;-79
2022/06/28 06:02:44;;;;;;;9.90;7.63;;;;;;;;;;5033170;28;20069;-79
2022/06/28 06:05:11;;;;;;;8.82;7.63;;;;;;;;;;5032728;28;20061;-72
2022/06/28 06:07:37;;;;;;;8.13;6.80;;;;;;;;;;5032721;28;20037;-79
2022/06/28 06:10:03;;;;;;;10.93;6.25;;;;;;;;;;5032761;28;20056;-79
2022/06/28 06:12:30;;;;;;;14.23;6.55;;;;;;;;;;5032990;28;20037;-77
2022/06/28 06:14:56;;;;;;;13.25;6.38;;;;;;;;;;5032632;28;20029;-78
2022/06/28 06:17:22;;;;;;;8.40;6.38;;;;;;;;;;5033003;28;20026;-79
2022/06/28 06:19:48;;;;;;;9.77;6.13;;;;;;;;;;5032635;28;20357;-75
2022/06/28 06:22:14;;;;;;;11.68;7.63;;;;;;;;;;5036531;28;20021;-77
2022/06/28 06:24:40;;;;;;;10.30;6.75;;;;;;;;;;5036543;28;20058;-79
2022/06/28 06:27:06;;;;;;;10.00;6.95;;;;;;;;;;5018613;28;20049;-78
2022/06/28 06:29:32;;;;;;;8.85;5.55;;;;;;;;;;5036424;28;20026;-78
2022/06/28 06:31:59;;;;;;;11.30;6.88;;;;;;;;;;5036779;28;20465;-79
2022/06/28 06:34:25;;;;;;;8.55;6.60;;;;;;;;;;5036405;28;20021;-69
2022/06/28 06:36:51;;;;;;;8.63;6.80;;;;;;;;;;5036569;28;20538;-77
2022/06/28 06:39:17;;;;;;;12.13;7.05;;;;;;;;;;5036376;28;20053;-79
2022/06/28 06:41:44;;;;;;;9.48;7.18;;;;;;;;;;5018709;28;20033;-69
2022/06/28 06:44:10;;;;;;;11.48;8.15;;;;;;;;;;5036150;28;20032;-77
2022/06/28 06:46:36;;;;;;;14.55;7.32;;;;;;;;;;5036165;28;20030;-69
2022/06/28 06:49:03;;;;;;;21.33;7.72;;;;;;;;;;5036276;28;20017;-69
2022/06/28 06:51:30;;;;;;;13.82;8.48;;;;;;;;;;5036130;28;20481;-75
2022/06/28 06:53:57;;;;;;;16.67;7.75;;;;;;;;;;5036270;28;20392;-69
2022/06/28 06:56:23;;;;;;;16.35;8.25;;;;;;;;;;5036019;28;20021;-78
2022/06/28 06:58:49;;;;;;;16.27;8.85;;;;;;;;;;5035942;28;20022;-77
2022/06/28 07:01:15;;;;;;;14.27;8.00;;;;;;;;;;5035988;28;20147;-79
2022/06/28 07:03:44;;;;;;;18.65;8.48;;;;;;;;;;5018067;28;20080;-79
2022/06/28 07:06:13;;;;;;;14.88;7.97;;;;;;;;;;5035511;28;20056;-79
2022/06/28 07:08:40;;;;;;;11.30;6.88;;;;;;;;;;5035745;28;20037;-79
2022/06/28 07:11:06;;;;;;;13.63;7.82;;;;;;;;;;5035799;28;20031;-79
2022/06/28 07:13:32;;;;;;;14.65;6.80;;;;;;;;;;5035536;28;20049;-77
2022/06/28 07:16:01;;;;;;;9.77;5.93;;;;;;;;;;5035705;28;20025;-79
2022/06/28 07:18:27;;;;;;;9.10;5.95;;;;;;;;;;5035644;28;20018;-77
2022/06/28 07:20:55;;;;;;;9.85;5.90;;;;;;;;;;5017252;28;20510;-79
2022/06/28 07:23:21;;;;;;;8.05;7.03;;;;;;;;;;5035598;28;20032;-77
2022/06/28 07:25:47;;;;;;;11.15;6.97;;;;;;;;;;5017713;28;20029;-79
2022/06/28 07:28:13;;;;;;;10.00;6.20;;;;;;;;;;5035296;28;20076;-79
2022/06/28 07:30:39;;;;;;;7.28;5.72;;;;;;;;;;5035420;28;20025;-79
2022/06/28 07:33:05;;;;;;;12.15;6.25;;;;;;;;;;5034654;28;20084;-80
2022/06/28 07:35:31;;;;;;;20.52;10.48;;;;;;;;;;5035275;28;20101;-79
2022/06/28 07:37:58;;;;;;;10.23;6.40;;;;;;;;;;5035228;28;20025;-78
2022/06/28 07:40:24;;;;;;;8.55;6.10;;;;;;;;;;5035210;28;20022;-75
2022/06/28 07:42:50;;;;;;;9.65;5.78;;;;;;;;;;5035175;28;20029;-78
2022/06/28 07:45:16;;;;;;;7.40;5.40;;;;;;;;;;5035020;28;20463;-78
2022/06/28 07:47:47;;;;;;;11.10;5.68;;;;;;;;;;5035073;28;20034;-78
2022/06/28 07:53:00;;;;;;;7.47;6.00;;;;;;;;;;5035271;28;20041;-78
2022/06/28 07:55:26;;;;;;;8.77;6.75;;;;;;;;;;5034830;28;20032;-79
2022/06/28 07:57:52;;;;;;;8.52;5.82;;;;;;;;;;5035075;28;20025;-79
2022/06/28 08:00:21;;;;;;;10.23;7.55;;;;;;;;;;5034587;28;20024;-78
2022/06/28 08:02:47;;;;;;;10.52;6.50;;;;;;;;;;5034893;28;20365;-79
2022/06/28 08:05:13;;;;;;;8.85;6.18;;;;;;;;;;5034606;28;20124;-78
2022/06/28 08:07:39;;;;;;;8.45;6.40;;;;;;;;;;5034618;28;20061;-79
2022/06/28 08:10:06;;;;;;;13.00;6.15;;;;;;;;;;5034727;28;20013;-79
2022/06/28 08:12:32;;;;;;;8.07;6.05;;;;;;;;;;5034417;28;20108;-79
2022/06/28 08:14:58;;;;;;;8.05;5.95;;;;;;;;;;5034442;28;20026;-78
2022/06/28 08:17:24;;;;;;;11.05;5.97;;;;;;;;;;5034544;28;20033;-77
2022/06/28 08:19:51;;;;;;;8.38;6.10;;;;;;;;;;5034513;28;20018;-78
2022/06/28 08:22:17;;;;;;;9.77;5.40;;;;;;;;;;5034480;28;20032;-79
2022/06/28 08:24:43;;;;;;;9.07;6.00;;;;;;;;;;5034284;28;20040;-78
2022/06/28 08:27:09;;;;;;;7.15;6.00;;;;;;;;;;5034090;28;20037;-79
2022/06/28 08:29:35;;;;;;;10.10;6.38;;;;;;;;;;5034502;28;20021;-79
2022/06/28 08:32:02;;;;;;;9.82;6.78;;;;;;;;;;5034412;28;20095;-78
2022/06/28 08:34:28;;;;;;;7.97;5.70;;;;;;;;;;5034366;28;20030;-78
2022/06/28 08:36:54;;;;;;;9.25;6.10;;;;;;;;;;5034392;28;20018;-79
2022/06/28 08:39:21;;;;;;;8.18;6.03;;;;;;;;;;5034042;28;20127;-79
2022/06/28 08:41:47;;;;;;;7.43;6.07;;;;;;;;;;5033860;28;20109;-78
2022/06/28 08:44:14;;;;;;;9.73;6.40;;;;;;;;;;5033784;28;20029;-78
2022/06/28 08:46:41;;;;;;;8.65;5.70;;;;;;;;;;5033860;28;20025;-79
2022/06/28 08:49:28;;;;;;;6.25;5.38;;;;;;;;;;5016050;28;20045;-79
2022/06/28 08:51:55;;;;;;;5.97;5.38;;;;;;;;;;5033943;28;20034;-77
2022/06/28 08:54:22;;;;;;;8.48;5.25;;;;;;;;;;5033682;28;20100;-73
2022/06/28 08:56:50;;;;;;;10.65;6.18;;;;;;;;;;5033714;28;20030;-76
2022/06/28 08:59:16;;;;;;;12.15;6.43;;;;;;;;;;5033792;28;20029;-78
2022/06/28 09:01:42;;;;;;;6.40;5.30;;;;;;;;;;5033687;28;20112;-78
2022/06/28 09:04:10;;;;;;;9.07;6.18;;;;;;;;;;5033486;28;20022;-78
2022/06/28 09:06:37;;;;;;;7.03;4.95;;;;;;;;;;5033597;28;20040;-79
2022/06/28 09:09:03;;;;;;;7.43;6.22;;;;;;;;;;5033486;28;20024;-79
2022/06/28 09:11:39;;;;;;;9.63;5.50;;;;;;;;;;5033429;28;20109;-79
2022/06/28 09:14:21;;;;;;;8.07;5.70;;;;;;;;;;5033307;28;20026;-77
2022/06/28 09:16:47;;;;;;;20.95;7.40;;;;;;;;;;5033506;28;20013;-78
2022/06/28 09:19:13;;;;;;;8.40;5.72;;;;;;;;;;5033503;28;20510;-78
2022/06/28 09:21:43;;;;;;;7.13;6.03;;;;;;;;;;5033323;28;20021;-78
2022/06/28 09:24:09;;;;;;;7.13;5.30;;;;;;;;;;5033332;28;20538;-78
2022/06/28 09:26:36;;;;;;;8.05;5.28;;;;;;;;;;5033095;28;20033;-78
2022/06/28 09:29:02;;;;;;;8.40;5.28;;;;;;;;;;5033164;28;20364;-74
2022/06/28 09:31:29;;;;;;;7.25;5.80;;;;;;;;;;5033213;28;20037;-76
2022/06/28 09:34:04;;;;;;;12.68;5.68;;;;;;;;;;5033223;28;20029;-76
2022/06/28 09:36:31;;;;;;;7.78;5.07;;;;;;;;;;5033140;28;20029;-77
2022/06/28 09:39:01;;;;;;;5.68;5.15;;;;;;;;;;5033061;28;20021;-78
2022/06/28 09:41:28;;;;;;;5.82;5.22;;;;;;;;;;5033110;28;20029;-79
2022/06/28 09:43:59;;;;;;;8.00;5.10;;;;;;;;;;5032972;28;20018;-78
2022/06/28 09:46:26;;;;;;;6.32;5.32;;;;;;;;;;5032840;28;20064;-79
2022/06/28 09:48:56;;;;;;;8.32;5.47;;;;;;;;;;5032993;28;20480;-75
2022/06/28 09:51:23;;;;;;;8.07;5.40;;;;;;;;;;5033136;28;20595;-77
2022/06/28 09:53:53;;;;;;;10.05;4.82;;;;;;;;;;5032919;28;20075;-78
2022/06/28 09:56:22;;;;;;;7.73;5.17;;;;;;;;;;5037996;28;20021;-78
2022/06/28 09:58:48;;;;;;;6.28;5.65;;;;;;;;;;5039687;28;20621;-79
2022/06/28 10:01:14;;;;;;;6.40;5.80;;;;;;;;;;5039350;28;20033;-78
2022/06/28 10:03:42;;;;;;;6.20;5.60;;;;;;;;;;5039559;28;20511;-78
2022/06/28 10:06:08;;;;;;;10.38;5.97;;;;;;;;;;5039328;28;20076;-76
2022/06/28 10:08:34;;;;;;;5.68;5.10;;;;;;;;;;5039296;28;20480;-77
2022/06/28 10:11:01;;;;;;;7.65;6.05;;;;;;;;;;5039665;28;20026;-76
2022/06/28 10:16:31;;;;;;;6.88;5.10;;;;;;;;;;5039399;28;20399;-79
2022/06/28 10:18:58;;;;;;;6.65;4.78;;;;;;;;;;5039388;28;20043;-73
2022/06/28 10:21:46;;;;;;;7.53;5.10;;;;;;;;;;5039204;28;20037;-79
2022/06/28 10:24:13;;;;;;;6.20;5.25;;;;;;;;;;5039394;28;20029;-79
2022/06/28 10:26:42;;;;;;;6.00;4.18;;;;;;;;;;5039125;28;20028;-76
2022/06/28 10:29:09;;;;;;;5.95;4.53;;;;;;;;;;5021672;28;20052;-79
2022/06/28 10:31:37;;;;;;;7.50;4.57;;;;;;;;;;5038989;28;20420;-79
2022/06/28 10:34:12;;;;;;;5.70;5.05;;;;;;;;;;5039101;28;20030;-78
2022/06/28 10:36:54;;;;;;;8.93;4.38;;;;;;;;;;5039402;28;20021;-79
2022/06/28 10:39:22;;;;;;;5.50;5.00;;;;;;;;;;5039308;28;20073;-74
2022/06/28 10:41:49;;;;;;;5.30;4.80;;;;;;;;;;5039016;28;20033;-73
2022/06/28 10:44:20;;;;;;;6.80;5.20;;;;;;;;;;5039126;28;20021;-78
2022/06/28 10:46:46;;;;;;;;;;;;;;;;;;5039517;28;20021;-78
2022/06/28 10:49:13;;;;;;;6.47;5.05;;;;;;;;;;5038793;28;19959;-78
2022/06/28 10:52:02;;;;;;;5.97;5.07;;;;;;;;;;5039065;28;20411;-77
2022/06/28 10:54:28;;;;;;;10.98;5.72;;;;;;;;;;5038852;28;20472;-78
2022/06/28 10:56:56;;;;;;;5.85;4.63;;;;;;;;;;5039007;28;20022;-78
2022/06/28 10:59:34;;;;;;;7.38;5.00;;;;;;;;;;5038837;28;20028;-76
2022/06/28 11:02:00;;;;;;;5.88;5.18;;;;;;;;;;5039230;28;20037;-79
2022/06/28 11:04:27;;;;;;;6.45;4.70;;;;;;;;;;5038984;28;20037;-75
2022/06/28 11:07:02;;;;;;;10.63;5.50;;;;;;;;;;5037879;28;20452;-78
2022/06/28 11:09:39;;;;;;;5.45;4.70;;;;;;;;;;5035818;28;20105;-77
2022/06/28 11:12:08;;;;;;;7.20;5.00;;;;;;;;;;5035808;28;20034;-76
2022/06/28 11:14:36;;;;;;;10.43;4.72;;;;;;;;;;5035776;28;20044;-76
2022/06/28 11:17:14;;;;;;;8.30;5.18;;;;;;;;;;5035947;28;20410;-76
2022/06/28 11:19:50;;;;;;;6.47;5.20;;;;;;;;;;5035503;28;20040;-76
2022/06/28 11:22:18;;;;;;;5.10;4.32;;;;;;;;;;5035754;28;20111;-76
2022/06/28 11:24:45;;;;;;;6.90;4.75;;;;;;;;;;5035680;28;20028;-76
2022/06/28 11:27:20;;;;;;;9.55;5.05;;;;;;;;;;5035523;28;20160;-76
2022/06/28 11:29:47;;;;;;;9.27;5.07;;;;;;;;;;5035518;28;20033;-78
2022/06/28 11:32:17;;;;;;;7.95;5.13;;;;;;;;;;5035730;28;20111;-76
2022/06/28 11:34:43;;;;;;;8.05;5.32;;;;;;;;;;5035415;28;20029;-75
2022/06/28 11:37:09;;;;;;;7.68;5.10;;;;;;;;;;5035136;28;20017;-76
2022/06/28 11:39:35;;;;;;;7.00;5.20;;;;;;;;;;5035445;28;20032;-76
2022/06/28 11:42:01;;;;;;;8.13;4.88;;;;;;;;;;5035337;28;20017;-76
2022/06/28 11:44:27;;;;;;;6.43;5.05;;;;;;;;;;5035063;28;20026;-77
2022/06/28 11:46:54;;;;;;;5.57;4.95;;;;;;;;;;5034920;28;20030;-76
2022/06/28 11:49:27;;;;;;;5.90;5.30;;;;;;;;;;5035080;28;20079;-75
2022/06/28 11:51:53;;;;;;;9.00;5.00;;;;;;;;;;5035160;28;20022;-76
2022/06/28 11:54:20;;;;;;;8.38;5.05;;;;;;;;;;5034984;28;20044;-75
2022/06/28 11:56:47;;;;;;;7.28;5.00;;;;;;;;;;5034974;28;20025;-77
2022/06/28 11:59:13;;;;;;;5.30;4.80;;;;;;;;;;5034961;28;20068;-76
2022/06/28 12:01:40;;;;;;;7.50;4.68;;;;;;;;;;5034912;28;20021;-76
2022/06/28 12:04:07;;;;;;;5.72;5.05;;;;;;;;;;5034572;28;20034;-74
2022/06/28 12:06:34;;;;;;;7.47;5.43;;;;;;;;;;5034678;28;20032;-76
2022/06/28 12:09:00;;;;;;;8.00;5.60;;;;;;;;;;5034674;28;20041;-76
2022/06/28 12:11:29;;;;;;;7.40;5.55;;;;;;;;;;5034497;28;20044;-72
2022/06/28 12:13:57;;;;;;;13.40;4.70;;;;;;;;;;5034581;28;20036;-76
2022/06/28 12:16:23;;;;;;;9.23;4.68;;;;;;;;;;5034276;28;20014;-74
2022/06/28 12:18:53;;;;;;;7.75;5.22;;;;;;;;;;5034288;28;20030;-76
2022/06/28 12:21:19;;;;;;;5.88;4.40;;;;;;;;;;5034723;28;20032;-76
2022/06/28 12:23:48;;;;;;;6.35;5.22;;;;;;;;;;5034382;28;20023;-74
2022/06/28 12:26:14;;;;;;;7.70;5.18;;;;;;;;;;5034470;28;20049;-75
2022/06/28 12:28:41;;;;;;;7.60;4.60;;;;;;;;;;5034200;28;20117;-76
2022/06/28 12:31:07;;;;;;;6.57;5.22;;;;;;;;;;5034062;28;20036;-76
2022/06/28 12:33:33;;;;;;;7.00;4.20;;;;;;;;;;5034222;28;20041;-77
2022/06/28 12:35:59;;;;;;;4.93;4.38;;;;;;;;;;5034038;28;20021;-77
2022/06/28 12:38:25;;;;;;;7.13;5.63;;;;;;;;;;5034106;28;20100;-75
2022/06/28 12:40:51;;;;;;;5.57;4.80;;;;;;;;;;5034226;28;20531;-78
2022/06/28 12:43:17;;;;;;;5.82;4.13;;;;;;;;;;5033973;28;20419;-73
2022/06/28 12:45:43;;;;;;;5.07;4.38;;;;;;;;;;5034169;28;20018;-76
2022/06/28 12:48:09;;;;;;;5.40;3.67;;;;;;;;;;5033924;28;20084;-76
2022/06/28 12:50:35;;;;;;;5.88;4.63;;;;;;;;;;5033913;28;20025;-76
2022/06/28 12:53:01;;;;;;;4.50;4.00;;;;;;;;;;5033921;28;20025;-76
2022/06/28 12:55:28;;;;;;;5.60;5.00;;;;;;;;;;5034018;28;20018;-76
2022/06/28 12:57:54;;;;;;;8.30;3.95;;;;;;;;;;5033912;28;20492;-76
2022/06/28 13:00:20;;;;;;;6.88;4.30;;;;;;;;;;5033700;28;20087;-75
2022/06/28 13:02:46;;;;;;;7.55;4.05;;;;;;;;;;5016246;28;20029;-76
2022/06/28 13:05:12;;;;;;;6.88;4.43;;;;;;;;;;5033579;28;20064;-74
2022/06/28 13:07:41;;;;;;;6.30;4.28;;;;;;;;;;5033665;28;20034;-73
2022/06/28 13:10:09;;;;;;;9.15;5.75;;;;;;;;;;5033599;28;20369;-72
2022/06/28 13:12:35;;;;;;;7.15;4.95;;;;;;;;;;5033594;28;20029;-76
2022/06/28 13:15:01;;;;;;;8.20;4.30;;;;;;;;;;5033559;28;20074;-76
2022/06/28 13:17:27;;;;;;;4.38;3.88;;;;;;;;;;5033797;28;20476;-75
2022/06/28 13:19:53;;;;;;;7.00;5.63;;;;;;;;;;5033195;28;20025;-78
2022/06/28 13:22:19;;;;;;;7.18;6.10;;;;;;;;;;5033356;28;20416;-79
2022/06/28 13:24:45;;;;;;;8.07;5.10;;;;;;;;;;5033226;28;20018;-74
2022/06/28 13:27:11;;;;;;;7.25;4.10;;;;;;;;;;5033257;28;20056;-79
2022/06/28 13:29:38;;;;;;;5.68;4.40;;;;;;;;;;5032681;28;20021;-74
2022/06/28 13:32:04;;;;;;;5.88;4.78;;;;;;;;;;5033046;28;20030;-76
2022/06/28 13:34:30;;;;;;;7.70;4.63;;;;;;;;;;5033220;28;20030;-77
2022/06/28 13:36:56;;;;;;;5.53;5.00;;;;;;;;;;5033106;28;20088;-74
2022/06/28 13:39:23;;;;;;;6.55;5.85;;;;;;;;;;5033121;28;20116;-78
2022/06/28 13:41:49;;;;;;;10.98;4.53;;;819.30;1587.20;;;;;;5033206;28;20365;-75
2022/06/28 13:44:16;;;;;;;6.43;4.45;;;819.30;1612.80;;;;;;5033045;28;20028;-77
2022/06/28 13:46:43;;;;;;;5.47;4.55;;;819.30;1612.80;;;;;;5032888;28;20026;-77
2022/06/28 13:49:09;;;;;;;6.63;5.13;;;819.30;1638.40;;;;;;5015242;28;20476;-77
2022/06/28 13:51:35;;;;;;;8.48;4.70;;;819.50;1612.80;;;;;;5033135;28;20028;-76
2022/06/28 13:54:01;;;;;;;7.30;4.80;;;819.50;1587.20;;;;;;5033138;28;20029;-74
2022/06/28 13:56:26;;;;;;;8.73;4.43;;;819.50;1612.80;;;;;;5032925;28;20028;-77
2022/06/28 13:58:52;;;;;;;6.22;4.68;;;819.30;1612.80;;;;;;5033026;28;20029;-72
2022/06/28 14:01:18;;;;;;;7.85;4.30;;;819.30;1638.40;;;;;;5032901;28;20156;-69
2022/06/28 14:03:44;;;;;;;6.63;4.75;;;819.30;1638.40;;;;;;5033035;28;20101;-76
2022/06/28 14:06:10;;;;;;;8.93;4.32;;;819.20;1638.40;;;;;;5032548;28;20057;-75
2022/06/28 14:08:36;;;;;;;5.00;4.43;;;794.40;1638.40;;;;;;5033085;28;20049;-70
2022/06/28 14:11:02;;;;;;;6.22;4.40;;;794.40;1664.00;;;;;;5032868;28;20365;-78
2022/06/28 14:13:27;;;;;;;7.03;5.00;;;794.40;1638.40;;;;;;5032930;28;20030;-77
2022/06/28 14:15:53;;;;;;;6.28;4.63;;;794.50;1664.00;;;;;;5032637;28;20032;-78
2022/06/28 14:18:21;;;;;;;10.60;5.75;;;794.30;1689.60;;;;;;5032792;28;20096;-77
2022/06/28 14:20:47;;;;;;;9.35;5.10;;;794.50;1664.00;;;;;;5032688;28;20022;-77
2022/06/28 14:23:12;;;;;;;6.40;5.00;;;819.30;1664.00;;;;;;5032832;28;20029;-78
2022/06/28 14:25:38;;;;;;;7.38;5.03;;;819.30;1664.00;;;;;;5032596;28;20265;-78
2022/06/28 14:28:04;;;;;;;5.80;4.55;;;819.20;1664.00;;;;;;5032528;28;20033;-78
2022/06/28 14:30:31;;;;;;;6.10;4.43;;;819.20;1664.00;;;;;;5032724;28;20030;-77